Time;durP1;ratioP1;P1;durP2;ratioP2;P2;SDS_P1;SDS_P2;PMS_P1;PMS_P2;Temp;Humidity;BMP_temperature;BMP_pressure;BME280_temperature;BME280_humidity;BME280_pressure;Samples;Min_cycle;Max_cycle;Signal;HPM_P1;HPM_P2
2024/01/19 00:01:18;;;;;;;;;;;17.00;60.70;;;;;;5037611;28;1492;-66
2024/01/19 00:03:44;;;;;;;;;;;17.00;60.70;;;;;;5001098;28;1094849;-68
2024/01/19 00:06:10;;;;;;;;;;;17.00;60.70;;;;;;5038770;28;1534;-68
2024/01/19 00:08:35;;;;;;;;;;;17.00;60.70;;;;;;5039340;28;1471;-66
2024/01/19 00:11:04;;;;;;;;;;;17.00;60.70;;;;;;5038808;28;1434;-68
2024/01/19 00:13:29;;;;;;;;;;;17.00;60.70;;;;;;5037619;28;1483;-66
2024/01/19 00:15:55;;;;;;;;;;;17.00;60.70;;;;;;5036030;28;1284;-68
2024/01/19 00:18:22;;;;;;;;;;;17.00;60.80;;;;;;5037774;28;1294;-69
2024/01/19 00:20:48;;;;;;;;;;;17.00;60.70;;;;;;5038124;28;2293;-68
2024/01/19 00:23:14;;;;;;;;;;;17.00;60.70;;;;;;5039290;28;1973;-68
2024/01/19 00:25:40;;;;;;;;;;;17.00;60.70;;;;;;5037576;28;1561;-68
2024/01/19 00:28:06;;;;;;;;;;;17.00;60.70;;;;;;5037492;28;1646;-67
2024/01/19 00:30:31;;;;;;;;;;;17.00;60.70;;;;;;5068009;28;1349;-68
2024/01/19 00:32:57;;;;;;;;;;;17.00;60.70;;;;;;5038982;28;1603;-67
2024/01/19 00:35:22;;;;;;;;;;;17.00;60.70;;;;;;5039619;28;1691;-69
2024/01/19 00:37:48;;;;;;;;;;;17.00;60.70;;;;;;5039473;28;1498;-68
2024/01/19 00:40:13;;;;;;;;;;;17.00;60.80;;;;;;5035465;28;1543;-68
2024/01/19 00:42:39;;;;;;;;;;;17.00;60.70;;;;;;5037942;28;1894;-68
2024/01/19 00:45:06;;;;;;;;;;;17.00;60.80;;;;;;5021544;28;1359;-68
2024/01/19 00:47:32;;;;;;;;;;;17.00;60.80;;;;;;5039766;28;1280;-67
2024/01/19 00:49:58;;;;;;;;;;;17.00;60.80;;;;;;5037657;28;1345;-68
2024/01/19 00:52:23;;;;;;;;;;;17.00;60.80;;;;;;5037050;28;1266;-67
2024/01/19 00:54:49;;;;;;;;;;;17.00;60.80;;;;;;5039795;28;1443;-68
2024/01/19 00:57:14;;;;;;;;;;;17.00;60.80;;;;;;5038916;28;1196;-68
2024/01/19 00:59:39;;;;;;;;;;;17.00;60.80;;;;;;5039067;28;1482;-66
2024/01/19 01:02:05;;;;;;;;;;;17.00;60.80;;;;;;5035367;28;1969;-66
2024/01/19 01:04:30;;;;;;;;;;;17.00;60.80;;;;;;5037649;28;1503;-67
2024/01/19 01:06:56;;;;;;;;;;;17.00;60.80;;;;;;5039749;28;1603;-67
2024/01/19 01:09:21;;;;;;;;;;;17.00;60.80;;;;;;5043878;28;1233;-67
2024/01/19 01:11:47;;;;;;;;;;;17.00;60.80;;;;;;5042384;28;1247;-67
2024/01/19 01:14:14;;;;;;;;;;;17.00;60.80;;;;;;5043147;28;2087;-67
2024/01/19 01:16:39;;;;;;;;;;;17.00;60.80;;;;;;5042441;28;1251;-66
2024/01/19 01:19:05;;;;;;;;;;;17.00;60.80;;;;;;5041200;28;1458;-66
2024/01/19 01:21:30;;;;;;;;;;;17.00;60.90;;;;;;5040373;28;1449;-67
2024/01/19 01:23:55;;;;;;;;;;;17.00;60.80;;;;;;5040416;28;1893;-67
2024/01/19 01:26:21;;;;;;;;;;;17.00;60.90;;;;;;5043052;28;1297;-67
2024/01/19 01:28:46;;;;;;;;;;;17.00;60.80;;;;;;5040965;28;1543;-67
2024/01/19 01:31:12;;;;;;;;;;;17.00;60.80;;;;;;5042198;28;1316;-67
2024/01/19 01:33:37;;;;;;;;;;;17.00;60.90;;;;;;5038733;28;1257;-67
2024/01/19 01:36:03;;;;;;;;;;;17.00;60.90;;;;;;5038769;28;1441;-67
2024/01/19 01:38:28;;;;;;;;;;;17.00;60.80;;;;;;5041713;28;1602;-67
2024/01/19 01:40:54;;;;;;;;;;;17.00;60.90;;;;;;5040581;28;1392;-66
2024/01/19 01:43:25;;;;;;;;;;;17.00;60.80;;;;;;5041159;28;1898;-68
2024/01/19 01:45:51;;;;;;;;;;;17.00;60.80;;;;;;5073174;28;1299;-67
2024/01/19 01:48:17;;;;;;;;;;;17.00;60.90;;;;;;5041177;28;1240;-67
2024/01/19 01:50:42;;;;;;;;;;;17.00;60.90;;;;;;5038096;28;1487;-67
2024/01/19 01:53:08;;;;;;;;;;;17.00;60.90;;;;;;5037387;28;1450;-67
2024/01/19 01:55:33;;;;;;;;;;;17.00;60.90;;;;;;5047009;28;1402;-67
2024/01/19 01:57:59;;;;;;;;;;;17.00;60.90;;;;;;5041593;28;1450;-66
2024/01/19 02:00:24;;;;;;;;;;;17.00;60.90;;;;;;5037889;28;1390;-67
2024/01/19 02:02:50;;;;;;;;;;;16.90;60.80;;;;;;5073281;28;1905;-67
2024/01/19 02:05:16;;;;;;;;;;;17.00;60.90;;;;;;5078074;28;1573;-67
2024/01/19 02:07:41;;;;;;;;;;;16.90;60.90;;;;;;5045493;28;1462;-66
2024/01/19 02:10:07;;;;;;;;;;;17.00;60.90;;;;;;5044880;28;1335;-66
2024/01/19 02:12:32;;;;;;;;;;;16.90;60.90;;;;;;5044978;28;1449;-67
2024/01/19 02:14:58;;;;;;;;;;;16.90;60.90;;;;;;5039777;28;1385;-68
2024/01/19 02:17:25;;;;;;;;;;;17.00;61.00;;;;;;5043519;28;1300;-68
2024/01/19 02:19:50;;;;;;;;;;;16.90;60.90;;;;;;5045953;28;2028;-68
2024/01/19 02:22:16;;;;;;;;;;;16.90;60.90;;;;;;5044298;28;1966;-66
2024/01/19 02:24:42;;;;;;;;;;;16.90;60.90;;;;;;5042816;28;1482;-67
2024/01/19 02:27:07;;;;;;;;;;;16.90;60.90;;;;;;5041905;28;1347;-66
2024/01/19 02:29:33;;;;;;;;;;;16.90;60.90;;;;;;5045657;28;1592;-64
2024/01/19 02:31:58;;;;;;;;;;;16.90;60.90;;;;;;5043665;28;1307;-64
2024/01/19 02:34:23;;;;;;;;;;;16.90;60.90;;;;;;5043505;28;1366;-66
2024/01/19 02:36:49;;;;;;;;;;;16.90;60.90;;;;;;5044762;28;1560;-65
2024/01/19 02:39:15;;;;;;;;;;;16.90;60.90;;;;;;5045755;28;1307;-66
2024/01/19 02:41:41;;;;;;;;;;;16.90;60.90;;;;;;5044576;28;1392;-66
2024/01/19 02:44:06;;;;;;;;;;;16.90;60.90;;;;;;5044202;28;1958;-65
2024/01/19 02:46:32;;;;;;;;;;;16.90;60.90;;;;;;5043295;28;1392;-65
2024/01/19 02:48:57;;;;;;;;;;;16.90;60.90;;;;;;5042044;28;1548;-66
2024/01/19 02:51:23;;;;;;;;;;;16.90;60.90;;;;;;5041701;28;1340;-64
2024/01/19 02:53:48;;;;;;;;;;;16.90;60.90;;;;;;5039656;28;1539;-66
2024/01/19 02:56:14;;;;;;;;;;;16.90;61.70;;;;;;5039136;28;1599;-67
2024/01/19 02:58:39;;;;;;;;;;;16.90;60.90;;;;;;5040483;28;1438;-67
2024/01/19 03:01:05;;;;;;;;;;;16.90;60.90;;;;;;5035732;28;1302;-66
2024/01/19 03:03:31;;;;;;;;;;;16.90;60.90;;;;;;5039911;28;2357;-66
2024/01/19 03:05:56;;;;;;;;;;;16.90;61.00;;;;;;5038863;28;1447;-66
2024/01/19 03:08:22;;;;;;;;;;;16.90;61.00;;;;;;5041492;28;1357;-64
2024/01/19 03:10:47;;;;;;;;;;;16.90;61.00;;;;;;5039342;28;1538;-64
2024/01/19 03:13:13;;;;;;;;;;;16.90;61.00;;;;;;5037617;28;1461;-65
2024/01/19 03:15:38;;;;;;;;;;;16.90;61.00;;;;;;5040156;28;1636;-66
2024/01/19 03:18:04;;;;;;;;;;;16.90;61.00;;;;;;5037084;28;1813;-63
2024/01/19 03:20:29;;;;;;;;;;;16.90;61.00;;;;;;5035830;28;1252;-64
2024/01/19 03:22:55;;;;;;;;;;;16.90;61.00;;;;;;5039137;28;1898;-68
2024/01/19 03:25:20;;;;;;;;;;;16.90;61.00;;;;;;5036038;28;1281;-64
2024/01/19 03:27:46;;;;;;;;;;;16.90;61.00;;;;;;5039962;28;1397;-65
2024/01/19 03:30:11;;;;;;;;;;;16.90;61.00;;;;;;5036361;28;1566;-67
2024/01/19 03:32:37;;;;;;;;;;;16.90;61.00;;;;;;5041560;28;1296;-67
2024/01/19 03:35:02;;;;;;;;;;;16.90;61.00;;;;;;5035903;28;1369;-64
2024/01/19 03:37:28;;;;;;;;;;;16.90;61.00;;;;;;5036337;28;1321;-64
2024/01/19 03:39:53;;;;;;;;;;;16.90;61.00;;;;;;5038502;28;1141;-65
2024/01/19 03:42:19;;;;;;;;;;;16.90;61.00;;;;;;5038558;28;1957;-64
2024/01/19 03:44:44;;;;;;;;;;;16.90;61.00;;;;;;5039409;28;1720;-65
2024/01/19 03:47:10;;;;;;;;;;;16.90;61.00;;;;;;5039678;28;1555;-66
2024/01/19 03:49:35;;;;;;;;;;;16.90;61.00;;;;;;5038621;28;1458;-67
2024/01/19 03:52:04;;;;;;;;;;;16.90;61.00;;;;;;5037925;28;1269;-64
2024/01/19 03:54:30;;;;;;;;;;;16.90;61.10;;;;;;5037180;28;1362;-67
2024/01/19 03:56:57;;;;;;;;;;;16.90;61.00;;;;;;5038862;28;1244;-67
2024/01/19 03:59:22;;;;;;;;;;;16.90;61.10;;;;;;5043376;28;1370;-66
2024/01/19 04:01:48;;;;;;;;;;;16.90;61.00;;;;;;5040216;28;1572;-66
2024/01/19 04:04:13;;;;;;;;;;;16.90;61.00;;;;;;5045098;28;1956;-68
2024/01/19 04:06:39;;;;;;;;;;;16.90;61.00;;;;;;5037423;28;1350;-67
2024/01/19 04:09:04;;;;;;;;;;;16.90;61.00;;;;;;5040070;28;1274;-69
2024/01/19 04:11:33;;;;;;;;;;;16.90;61.00;;;;;;5035124;28;1619;-67
2024/01/19 04:13:59;;;;;;;;;;;16.90;61.00;;;;;;5037283;28;1264;-66
2024/01/19 04:16:24;;;;;;;;;;;16.90;61.00;;;;;;5039462;28;1276;-67
2024/01/19 04:18:49;;;;;;;;;;;16.90;61.00;;;;;;5039563;28;1599;-66
2024/01/19 04:21:15;;;;;;;;;;;16.90;61.00;;;;;;5036489;28;1435;-65
2024/01/19 04:23:40;;;;;;;;;;;16.90;61.10;;;;;;5040223;28;1898;-65
2024/01/19 04:26:06;;;;;;;;;;;16.90;61.00;;;;;;5039172;28;1341;-67
2024/01/19 04:28:31;;;;;;;;;;;16.90;61.00;;;;;;5039908;28;1444;-66
2024/01/19 04:31:00;;;;;;;;;;;16.90;61.00;;;;;;5039911;28;1280;-65
2024/01/19 04:33:25;;;;;;;;;;;16.90;61.00;;;;;;5036875;28;1614;-67
2024/01/19 04:35:51;;;;;;;;;;;16.90;61.10;;;;;;5037141;28;1377;-66
2024/01/19 04:38:16;;;;;;;;;;;16.80;61.00;;;;;;5039600;28;1363;-66
2024/01/19 04:40:41;;;;;;;;;;;16.90;61.00;;;;;;5044519;28;1458;-66
2024/01/19 04:43:07;;;;;;;;;;;16.90;61.00;;;;;;5043061;28;1961;-66
2024/01/19 04:45:33;;;;;;;;;;;16.80;61.00;;;;;;5044237;28;1282;-66
2024/01/19 04:47:58;;;;;;;;;;;16.90;61.10;;;;;;5040235;28;907;-66
2024/01/19 04:50:24;;;;;;;;;;;16.80;61.00;;;;;;5041406;28;1583;-66
2024/01/19 04:52:49;;;;;;;;;;;16.80;61.00;;;;;;5040332;28;1456;-66
2024/01/19 04:55:15;;;;;;;;;;;16.80;61.00;;;;;;5049159;28;1531;-66
2024/01/19 04:57:40;;;;;;;;;;;16.80;61.00;;;;;;5072590;28;1387;-66
2024/01/19 05:00:06;;;;;;;;;;;16.90;61.10;;;;;;5038925;28;1312;-66
2024/01/19 05:02:32;;;;;;;;;;;16.80;61.00;;;;;;5041481;28;1965;-66
2024/01/19 05:04:59;;;;;;;;;;;16.80;61.00;;;;;;5042235;28;1544;-65
2024/01/19 05:07:26;;;;;;;;;;;16.80;61.00;;;;;;5039084;28;1377;-66
2024/01/19 05:09:52;;;;;;;;;;;16.80;61.00;;;;;;5070232;28;1425;-66
2024/01/19 05:12:17;;;;;;;;;;;16.80;61.00;;;;;;5039785;28;1402;-65
2024/01/19 05:14:43;;;;;;;;;;;16.90;61.00;;;;;;5039010;28;1459;-65
2024/01/19 05:17:08;;;;;;;;;;;16.90;60.90;;;;;;5039537;28;1482;-66
2024/01/19 05:19:33;;;;;;;;;;;16.90;60.90;;;;;;5040120;28;1408;-65
2024/01/19 05:21:59;;;;;;;;;;;16.90;60.70;;;;;;5041943;28;1562;-66
2024/01/19 05:24:24;;;;;;;;;;;17.00;60.60;;;;;;5041727;28;1960;-66
2024/01/19 05:26:50;;;;;;;;;;;17.00;60.50;;;;;;5040920;28;1660;-65
2024/01/19 05:29:16;;;;;;;;;;;17.00;60.30;;;;;;5041423;28;1393;-66
2024/01/19 05:31:41;;;;;;;;;;;17.10;60.20;;;;;;5041861;28;1495;-65
2024/01/19 05:34:06;;;;;;;;;;;17.10;60.10;;;;;;5038315;28;1387;-67
2024/01/19 05:36:32;;;;;;;;;;;17.10;60.00;;;;;;5037599;28;1475;-66
2024/01/19 05:38:57;;;;;;;;;;;17.20;60.00;;;;;;5039694;28;1334;-64
2024/01/19 05:41:23;;;;;;;;;;;17.20;59.80;;;;;;5040706;28;1288;-65
2024/01/19 05:43:49;;;;;;;;;;;17.20;59.80;;;;;;5040953;28;1943;-65
2024/01/19 05:46:14;;;;;;;;;;;17.30;59.80;;;;;;5039010;28;1224;-66
2024/01/19 05:48:40;;;;;;;;;;;17.30;59.70;;;;;;5040942;28;1448;-64
2024/01/19 05:51:15;;;;;;;;;;;17.30;59.60;;;;;;5042219;28;1654;-65
2024/01/19 05:53:40;;;;;;;;;;;17.30;59.50;;;;;;5040211;28;1141;-66
2024/01/19 05:56:05;;;;;;;;;;;17.30;59.50;;;;;;5041478;28;1359;-65
2024/01/19 05:58:31;;;;;;;;;;;17.30;59.40;;;;;;5040802;28;884;-67
2024/01/19 06:00:56;;;;;;;;;;;17.40;59.40;;;;;;5041129;28;1735;-66
2024/01/19 06:03:22;;;;;;;;;;;17.40;59.40;;;;;;5038415;28;1906;-66
2024/01/19 06:05:47;;;;;;;;;;;17.40;59.40;;;;;;5040327;28;1538;-66
2024/01/19 06:08:13;;;;;;;;;;;17.40;59.30;;;;;;5041235;28;1428;-64
2024/01/19 06:10:38;;;;;;;;;;;17.40;59.30;;;;;;5043293;28;1244;-65
2024/01/19 06:13:04;;;;;;;;;;;17.40;59.20;;;;;;5040481;28;841;-64
2024/01/19 06:15:29;;;;;;;;;;;17.40;59.20;;;;;;5042083;28;1430;-65
2024/01/19 06:17:55;;;;;;;;;;;17.40;59.20;;;;;;5043233;28;1526;-66
2024/01/19 06:20:20;;;;;;;;;;;17.40;59.20;;;;;;5040111;28;1283;-66
2024/01/19 06:22:46;;;;;;;;;;;17.50;59.20;;;;;;5043010;28;1946;-66
2024/01/19 06:25:14;;;;;;;;;;;17.40;59.20;;;;;;5040828;28;1373;-65
2024/01/19 06:27:39;;;;;;;;;;;17.50;59.20;;;;;;5071791;28;1414;-65
2024/01/19 06:30:08;;;;;;;;;;;17.50;59.10;;;;;;5039209;28;1535;-65
2024/01/19 06:32:33;;;;;;;;;;;17.50;59.10;;;;;;5040294;28;1442;-66
2024/01/19 06:34:59;;;;;;;;;;;17.50;59.10;;;;;;5042031;28;1537;-65
2024/01/19 06:37:24;;;;;;;;;;;17.50;59.10;;;;;;5038048;28;1287;-67
2024/01/19 06:39:50;;;;;;;;;;;17.50;59.10;;;;;;5040911;28;1559;-65
2024/01/19 06:42:15;;;;;;;;;;;17.50;59.10;;;;;;5041622;28;1906;-71
2024/01/19 06:44:41;;;;;;;;;;;17.50;59.10;;;;;;5037685;28;1856;-68
2024/01/19 06:47:06;;;;;;;;;;;17.50;59.10;;;;;;5038487;28;1332;-67
2024/01/19 06:49:32;;;;;;;;;;;17.50;59.10;;;;;;5038256;28;1780;-69
2024/01/19 06:51:59;;;;;;;;;;;17.50;59.10;;;;;;5039147;28;1826;-65
2024/01/19 06:54:24;;;;;;;;;;;17.50;59.10;;;;;;5045020;28;1374;-64
2024/01/19 06:56:50;;;;;;;;;;;17.50;59.10;;;;;;5041829;28;1526;-67
2024/01/19 06:59:15;;;;;;;;;;;17.50;59.10;;;;;;5039963;28;1411;-66
2024/01/19 07:01:41;;;;;;;;;;;17.50;59.10;;;;;;5039280;28;1278;-68
2024/01/19 07:04:06;;;;;;;;;;;17.50;59.10;;;;;;5042130;28;2032;-65
2024/01/19 07:06:33;;;;;;;;;;;17.50;59.70;;;;;;5038047;28;1284;-68
2024/01/19 07:08:59;;;;;;;;;;;17.50;59.20;;;;;;5037230;28;1326;-65
2024/01/19 07:11:24;;;;;;;;;;;17.50;59.20;;;;;;5037708;28;1240;-64
2024/01/19 07:13:50;;;;;;;;;;;17.50;59.20;;;;;;5039120;28;1452;-65
2024/01/19 07:16:15;;;;;;;;;;;17.50;59.20;;;;;;5039292;28;1577;-67
2024/01/19 07:18:41;;;;;;;;;;;17.40;59.20;;;;;;5041732;28;1451;-66
2024/01/19 07:21:06;;;;;;;;;;;17.40;59.20;;;;;;5039313;28;1574;-66
2024/01/19 07:23:32;;;;;;;;;;;17.40;59.20;;;;;;5038831;28;1886;-67
2024/01/19 07:25:57;;;;;;;;;;;17.40;59.20;;;;;;5039869;28;1351;-67
2024/01/19 07:28:22;;;;;;;;;;;17.40;59.30;;;;;;5039635;28;1324;-64
2024/01/19 07:30:48;;;;;;;;;;;17.40;59.20;;;;;;5039244;28;1061;-67
2024/01/19 07:33:13;;;;;;;;;;;17.40;59.20;;;;;;5037210;28;1158;-65
2024/01/19 07:35:39;;;;;;;;;;;17.40;59.30;;;;;;5038745;28;1258;-66
2024/01/19 07:38:04;;;;;;;;;;;17.40;59.30;;;;;;5039942;28;1463;-66
2024/01/19 07:40:30;;;;;;;;;;;17.40;59.30;;;;;;5038915;28;1158;-67
2024/01/19 07:42:55;;;;;;;;;;;17.40;59.30;;;;;;5038745;28;1922;-66
2024/01/19 07:45:21;;;;;;;;;;;17.40;59.30;;;;;;5041665;28;1332;-65
2024/01/19 07:47:46;;;;;;;;;;;17.40;59.40;;;;;;5070496;28;1455;-68
2024/01/19 07:50:11;;;;;;;;;;;17.40;59.40;;;;;;5039943;28;1487;-64
2024/01/19 07:52:38;;;;;;;;;;;17.40;59.40;;;;;;5028510;28;4232;-65
2024/01/19 07:55:04;;;;;;;;;;;17.40;59.40;;;;;;5038807;28;4021;-65
2024/01/19 07:57:29;;;;;;;;;;;17.30;59.40;;;;;;5039362;28;1341;-63
2024/01/19 07:59:55;;;;;;;;;;;17.30;59.40;;;;;;5041774;28;1437;-67
2024/01/19 08:02:21;;;;;;;;;;;17.40;59.40;;;;;;5043668;28;1894;-68
2024/01/19 08:04:47;;;;;;;;;;;17.30;59.40;;;;;;5070868;28;1375;-69
2024/01/19 08:07:12;;;;;;;;;;;17.30;59.40;;;;;;5042032;28;1631;-67
2024/01/19 08:09:38;;;;;;;;;;;17.30;59.50;;;;;;5040356;28;1462;-66
2024/01/19 08:12:03;;;;;;;;;;;17.30;59.50;;;;;;5037968;28;1461;-65
2024/01/19 08:14:29;;;;;;;;;;;17.30;59.50;;;;;;5043018;28;1473;-68
2024/01/19 08:16:54;;;;;;;;;;;17.30;59.50;;;;;;5040492;28;1538;-64
2024/01/19 08:19:20;;;;;;;;;;;17.30;59.50;;;;;;5043305;28;1259;-64
2024/01/19 08:21:45;;;;;;;;;;;17.30;59.50;;;;;;5041130;28;1650;-67
2024/01/19 08:24:12;;;;;;;;;;;17.30;59.50;;;;;;5041263;28;1906;-65
2024/01/19 08:26:38;;;;;;;;;;;17.30;59.50;;;;;;5039404;28;1338;-68
2024/01/19 08:29:03;;;;;;;;;;;17.30;59.50;;;;;;5043755;28;1337;-66
2024/01/19 08:31:30;;;;;;;;;;;17.30;59.60;;;;;;5042396;28;1289;-66
2024/01/19 08:33:58;;;;;;;;;;;17.30;59.60;;;;;;5043186;28;1466;-66
2024/01/19 08:36:24;;;;;;;;;;;17.30;59.60;;;;;;5042899;28;1558;-66
2024/01/19 08:38:52;;;;;;;;;;;17.30;59.60;;;;;;5042274;28;1515;-66
2024/01/19 08:41:18;;;;;;;;;;;17.30;59.60;;;;;;5075854;28;1271;-67
2024/01/19 08:43:43;;;;;;;;;;;17.30;59.60;;;;;;5043429;28;1926;-66
2024/01/19 08:46:09;;;;;;;;;;;17.30;59.50;;;;;;5042261;28;1340;-66
2024/01/19 08:48:34;;;;;;;;;;;17.30;59.50;;;;;;5042565;28;1265;-67
2024/01/19 08:51:01;;;;;;;;;;;17.30;59.50;;;;;;5040167;28;1293;-67
2024/01/19 08:53:29;;;;;;;;;;;17.30;59.40;;;;;;5071294;28;1500;-67
2024/01/19 08:55:54;;;;;;;;;;;17.30;59.40;;;;;;5041381;28;1419;-67
2024/01/19 08:58:20;;;;;;;;;;;17.30;59.40;;;;;;5039795;28;1532;-67
2024/01/19 09:00:46;;;;;;;;;;;17.40;59.40;;;;;;5072019;28;1438;-68
2024/01/19 09:03:15;;;;;;;;;;;17.40;59.40;;;;;;5045544;28;1945;-67
2024/01/19 09:05:40;;;;;;;;;;;17.40;59.30;;;;;;5041246;28;1447;-68
2024/01/19 09:08:05;;;;;;;;;;;17.40;59.30;;;;;;5041802;28;1460;-67
2024/01/19 09:10:31;;;;;;;;;;;17.40;59.30;;;;;;5041431;28;1447;-67
2024/01/19 09:12:56;;;;;;;;;;;17.40;59.20;;;;;;5041579;28;1816;-67
2024/01/19 09:15:22;;;;;;;;;;;17.40;59.20;;;;;;5041574;28;1465;-67
2024/01/19 09:17:47;;;;;;;;;;;17.40;59.20;;;;;;5042022;28;1351;-67
2024/01/19 09:20:13;;;;;;;;;;;17.40;59.20;;;;;;5040156;28;1258;-67
2024/01/19 09:22:38;;;;;;;;;;;17.40;59.20;;;;;;5039654;28;1910;-67
2024/01/19 09:25:04;;;;;;;;;;;17.40;59.20;;;;;;5042714;28;1602;-67
2024/01/19 09:27:30;;;;;;;;;;;17.40;59.20;;;;;;5042636;28;1338;-67
2024/01/19 09:29:55;;;;;;;;;;;17.50;59.20;;;;;;5043261;28;1311;-68
2024/01/19 09:32:21;;;;;;;;;;;17.50;59.20;;;;;;5042201;28;1183;-68
2024/01/19 09:34:46;;;;;;;;;;;17.50;59.20;;;;;;5039931;28;1441;-68
2024/01/19 09:37:11;;;;;;;;;;;17.50;59.20;;;;;;5037795;28;1956;-66
2024/01/19 09:39:37;;;;;;;;;;;17.50;59.20;;;;;;5042038;28;1293;-66
2024/01/19 09:42:03;;;;;;;;;;;17.50;59.10;;;;;;5041226;28;1470;-67
2024/01/19 09:44:31;;;;;;;;;;;17.50;59.10;;;;;;5040097;28;1886;-67
2024/01/19 09:47:05;;;;;;;;;;;17.50;59.10;;;;;;5038793;28;1429;-67
2024/01/19 09:50:00;;;;;;;;;;;17.50;59.10;;;;;;5049022;28;1415;-67
2024/01/19 09:52:38;;;;;;;;;;;17.50;59.10;;;;;;5039959;28;1251;-67
2024/01/19 09:55:04;;;;;;;;;;;17.50;59.10;;;;;;5043590;28;1646;-67
2024/01/19 09:57:29;;;;;;;;;;;17.50;59.10;;;;;;5038857;28;1498;-67
2024/01/19 09:59:55;;;;;;;;;;;17.50;59.10;;;;;;5042172;28;1345;-67
2024/01/19 10:02:20;;;;;;;;;;;17.50;59.00;;;;;;5038730;28;1918;-67
2024/01/19 10:04:46;;;;;;;;;;;17.50;59.00;;;;;;5045200;28;1614;-66
2024/01/19 10:07:11;;;;;;;;;;;17.50;59.00;;;;;;5041981;28;1670;-68
2024/01/19 10:09:37;;;;;;;;;;;17.50;58.90;;;;;;5068554;28;2005;-67
2024/01/19 10:12:04;;;;;;;;;;;17.60;59.00;;;;;;5035487;28;1856;-67
2024/01/19 10:14:29;;;;;;;;;;;17.50;58.90;;;;;;5067703;28;1991;-67
2024/01/19 10:16:55;;;;;;;;;;;17.60;59.00;;;;;;5037986;28;1307;-67
2024/01/19 10:19:21;;;;;;;;;;;17.60;58.90;;;;;;5037473;28;1175;-67
2024/01/19 10:21:46;;;;;;;;;;;17.60;58.90;;;;;;5038716;28;1349;-67
2024/01/19 10:24:14;;;;;;;;;;;17.50;58.90;;;;;;5068921;28;1906;-67
2024/01/19 10:26:42;;;;;;;;;;;17.60;58.90;;;;;;5041416;28;1554;-67
2024/01/19 10:29:16;;;;;;;;;;;17.60;58.90;;;;;;5039456;28;1934;-68
2024/01/19 10:31:52;;;;;;;;;;;17.60;58.90;;;;;;5038400;28;1294;-67
2024/01/19 10:34:22;;;;;;;;;;;17.60;58.90;;;;;;5039174;28;1884;-68
2024/01/19 10:36:48;;;;;;;;;;;17.60;58.90;;;;;;5038492;28;1402;-67
2024/01/19 10:39:20;;;;;;;;;;;17.60;59.50;;;;;;5072249;28;2114;-67
2024/01/19 10:41:46;;;;;;;;;;;17.60;58.90;;;;;;5037571;28;1350;-67
2024/01/19 10:44:13;;;;;;;;;;;17.60;58.90;;;;;;5040458;28;1985;-67
2024/01/19 10:46:38;;;;;;;;;;;17.60;58.90;;;;;;5069366;28;1484;-67
2024/01/19 10:49:04;;;;;;;;;;;17.60;59.10;;;;;;5035344;28;1473;-67
2024/01/19 10:51:30;;;;;;;;;;;17.60;58.90;;;;;;5036705;28;2107;-66
2024/01/19 10:53:59;;;;;;;;;;;17.60;58.90;;;;;;5071038;28;1455;-67
2024/01/19 10:56:28;;;;;;;;;;;17.60;58.90;;;;;;5071618;28;1505;-67
2024/01/19 10:58:53;;;;;;;;;;;17.60;58.90;;;;;;5039282;28;1401;-67
2024/01/19 11:01:19;;;;;;;;;;;17.60;58.90;;;;;;5053673;28;1720;-67
2024/01/19 11:03:44;;;;;;;;;;;17.60;58.90;;;;;;5044156;28;1965;-66
2024/01/19 11:06:10;;;;;;;;;;;17.60;58.90;;;;;;5039444;28;1298;-67
2024/01/19 11:08:36;;;;;;;;;;;17.60;58.90;;;;;;5035635;28;1408;-67
2024/01/19 11:11:02;;;;;;;;;;;17.60;58.80;;;;;;5040157;28;1601;-67
2024/01/19 11:13:27;;;;;;;;;;;17.60;58.80;;;;;;5071736;28;1156;-67
2024/01/19 11:15:54;;;;;;;;;;;17.60;58.80;;;;;;5070585;28;1557;-68
2024/01/19 11:18:23;;;;;;;;;;;17.60;58.80;;;;;;5040833;28;1481;-67
2024/01/19 11:20:49;;;;;;;;;;;17.60;58.80;;;;;;5039513;28;1237;-67
2024/01/19 11:23:16;;;;;;;;;;;17.60;58.80;;;;;;5038493;28;1972;-66
2024/01/19 11:25:48;;;;;;;;;;;17.60;58.80;;;;;;5071495;28;1259;-67
2024/01/19 11:28:24;;;;;;;;;;;17.60;58.80;;;;;;5039077;28;1419;-67
2024/01/19 11:30:53;;;;;;;;;;;17.60;58.80;;;;;;5069755;28;1347;-68
2024/01/19 11:33:18;;;;;;;;;;;17.60;58.80;;;;;;5037963;28;1453;-67
2024/01/19 11:35:48;;;;;;;;;;;17.60;58.80;;;;;;5036787;28;1354;-67
2024/01/19 11:38:40;;;;;;;;;;;17.60;58.80;;;;;;5039029;28;1629;-66
2024/01/19 11:41:05;;;;;;;;;;;17.60;58.80;;;;;;5036566;28;1459;-67
2024/01/19 11:43:38;;;;;;;;;;;17.60;58.80;;;;;;5039270;28;1964;-66
2024/01/19 11:46:03;;;;;;;;;;;17.60;58.80;;;;;;5038186;28;1306;-66
2024/01/19 11:48:39;;;;;;;;;;;17.60;59.40;;;;;;5036733;28;1297;-67
2024/01/19 11:51:05;;;;;;;;;;;17.60;58.80;;;;;;5034680;28;1577;-67
2024/01/19 11:53:49;;;;;;;;;;;17.60;58.80;;;;;;5037558;28;1672;-67
2024/01/19 11:56:21;;;;;;;;;;;17.60;58.90;;;;;;5042987;28;1430;-67
2024/01/19 11:58:47;;;;;;;;;;;17.50;58.90;;;;;;5039019;28;1487;-66
2024/01/19 12:01:12;;;;;;;;;;;17.50;58.90;;;;;;5035782;28;1799;-67
2024/01/19 12:03:38;;;;;;;;;;;17.50;59.00;;;;;;5039393;28;1902;-66
2024/01/19 12:06:05;;;;;;;;;;;17.50;59.00;;;;;;5039434;28;1295;-66
2024/01/19 12:08:31;;;;;;;;;;;17.50;59.00;;;;;;5043370;28;1308;-67
2024/01/19 12:11:00;;;;;;;;;;;17.50;59.00;;;;;;5038592;28;1602;-67
2024/01/19 12:13:26;;;;;;;;;;;17.50;59.00;;;;;;5038137;28;1461;-67
2024/01/19 12:15:52;;;;;;;;;;;17.50;59.10;;;;;;5038560;28;1265;-67
2024/01/19 12:18:17;;;;;;;;;;;17.50;59.10;;;;;;5038787;28;1164;-68
2024/01/19 12:20:45;;;;;;;;;;;17.50;59.10;;;;;;5038224;28;1389;-67
2024/01/19 12:23:12;;;;;;;;;;;17.50;59.10;;;;;;5038362;28;1963;-65
2024/01/19 12:25:38;;;;;;;;;;;17.50;59.10;;;;;;5037425;28;1276;-66
2024/01/19 12:28:04;;;;;;;;;;;17.50;59.10;;;;;;5067335;28;1463;-67
2024/01/19 12:30:33;;;;;;;;;;;17.50;59.10;;;;;;5038908;28;1565;-66
2024/01/19 12:33:12;;;;;;;;;;;17.50;59.20;;;;;;5036969;28;1721;-66
2024/01/19 12:35:38;;;;;;;;;;;17.50;59.20;;;;;;5039124;28;1428;-66
2024/01/19 12:38:03;;;;;;;;;;;17.40;59.20;;;;;;5037737;28;2286;-65
2024/01/19 12:40:29;;;;;;;;;;;17.40;59.20;;;;;;5038489;28;1464;-65
2024/01/19 12:43:00;;;;;;;;;;;17.40;59.20;;;;;;5038122;28;1886;-67
2024/01/19 12:45:26;;;;;;;;;;;17.40;59.20;;;;;;5039526;28;1382;-65
2024/01/19 12:47:51;;;;;;;;;;;17.40;59.20;;;;;;5036271;28;1574;-64
2024/01/19 12:50:17;;;;;;;;;;;17.50;59.20;;;;;;5036774;28;1298;-66
2024/01/19 12:52:43;;;;;;;;;;;17.50;59.10;;;;;;5038285;28;1245;-65
2024/01/19 12:55:08;;;;;;;;;;;17.50;59.10;;;;;;5069973;28;1469;-65
2024/01/19 12:57:34;;;;;;;;;;;17.50;59.00;;;;;;5037300;28;1109;-69
2024/01/19 13:00:11;;;;;;;;;;;17.50;59.00;;;;;;5072228;28;1461;-65
2024/01/19 13:02:37;;;;;;;;;;;17.50;59.00;;;;;;5040414;28;1956;-65
2024/01/19 13:05:02;;;;;;;;;;;17.50;58.90;;;;;;5075070;28;1364;-64
2024/01/19 13:07:28;;;;;;;;;;;17.60;58.90;;;;;;5050381;28;1462;-68
2024/01/19 13:10:03;;;;;;;;;;;17.60;58.90;;;;;;5042424;28;1276;-66
2024/01/19 13:12:29;;;;;;;;;;;17.60;58.90;;;;;;5041741;28;1481;-65
2024/01/19 13:15:07;;;;;;;;;;;17.60;58.80;;;;;;5044336;28;1276;-65
2024/01/19 13:17:34;;;;;;;;;;;17.60;58.80;;;;;;5040479;28;887;-68
2024/01/19 13:20:00;;;;;;;;;;;17.60;58.80;;;;;;5039156;28;1093;-64
2024/01/19 13:22:25;;;;;;;;;;;17.60;58.80;;;;;;5042498;28;1351;-69
2024/01/19 13:24:52;;;;;;;;;;;17.60;58.80;;;;;;5048456;28;1898;-64
2024/01/19 13:27:18;;;;;;;;;;;17.60;58.80;;;;;;5040692;28;1461;-71
2024/01/19 13:29:43;;;;;;;;;;;17.60;58.80;;;;;;5042700;28;1676;-69
2024/01/19 13:32:09;;;;;;;;;;;17.60;58.70;;;;;;5039209;28;1466;-66
2024/01/19 13:34:34;;;;;;;;;;;17.60;58.70;;;;;;5040761;28;1465;-66
2024/01/19 13:37:00;;;;;;;;;;;17.60;58.70;;;;;;5071316;28;1806;-67
2024/01/19 13:39:26;;;;;;;;;;;17.60;58.70;;;;;;5039916;28;1246;-66
2024/01/19 13:41:51;;;;;;;;;;;17.60;58.80;;;;;;5072727;28;1381;-68
2024/01/19 13:44:17;;;;;;;;;;;17.70;58.70;;;;;;5039712;28;1878;-67
2024/01/19 13:46:42;;;;;;;;;;;17.70;58.70;;;;;;5041523;28;1473;-68
2024/01/19 13:49:08;;;;;;;;;;;17.70;58.60;;;;;;5037981;28;1483;-67
2024/01/19 13:51:33;;;;;;;;;;;17.70;58.60;;;;;;5041480;28;1448;-68
2024/01/19 13:53:58;;;;;;;;;;;17.70;58.60;;;;;;5040684;28;1427;-68
2024/01/19 13:56:24;;;;;;;;;;;17.70;58.60;;;;;;5042874;28;1555;-67
2024/01/19 13:58:50;;;;;;;;;;;17.70;58.60;;;;;;5041582;28;1453;-68
2024/01/19 14:01:15;;;;;;;;;;;17.70;58.60;;;;;;5041342;28;1630;-67
2024/01/19 14:03:41;;;;;;;;;;;17.70;58.60;;;;;;5038725;28;1973;-68
2024/01/19 14:06:06;;;;;;;;;;;17.70;58.60;;;;;;5039554;28;1379;-67
2024/01/19 14:08:32;;;;;;;;;;;17.70;58.60;;;;;;5047296;28;1479;-67
2024/01/19 14:10:57;;;;;;;;;;;17.70;58.70;;;;;;5039374;28;1265;-67
2024/01/19 14:13:23;;;;;;;;;;;17.60;58.60;;;;;;5039658;28;1384;-68
2024/01/19 14:15:49;;;;;;;;;;;17.60;58.70;;;;;;5042587;28;1526;-68
2024/01/19 14:18:16;;;;;;;;;;;17.60;58.70;;;;;;5035828;28;1513;-67
2024/01/19 14:20:42;;;;;;;;;;;17.60;58.70;;;;;;5040264;28;1546;-68
2024/01/19 14:23:08;;;;;;;;;;;17.60;58.80;;;;;;5038338;28;1974;-68
2024/01/19 14:25:33;;;;;;;;;;;17.60;58.80;;;;;;5040682;28;1369;-67